Time;durP1;ratioP1;P1;durP2;ratioP2;P2;SDS_P1;SDS_P2;PMS_P1;PMS_P2;Temp;Humidity;BMP_temperature;BMP_pressure;BME280_temperature;BME280_humidity;BME280_pressure;Samples;Min_cycle;Max_cycle;Signal;HPM_P1;HPM_P2
2021/12/06 00:02:00;;;;;;;28.83;21.75;;;6.20;85.70;;;;;;5020471;28;20039;-72
2021/12/06 00:04:31;;;;;;;29.95;22.17;;;6.20;85.70;;;;;;5029785;28;20040;-72
2021/12/06 00:07:02;;;;;;;31.05;23.13;;;6.20;85.80;;;;;;5029648;28;20021;-69
2021/12/06 00:09:30;;;;;;;30.15;22.90;;;6.20;85.90;;;;;;5025037;28;20484;-69
2021/12/06 00:11:59;;;;;;;29.33;22.15;;;6.10;85.90;;;;;;5009233;28;20022;-69
2021/12/06 00:14:28;;;;;;;32.05;22.73;;;6.20;86.00;;;;;;5023724;28;20057;-72
2021/12/06 00:16:55;;;;;;;30.50;21.95;;;6.20;86.00;;;;;;5028137;28;20029;-69
2021/12/06 00:19:21;;;;;;;30.95;23.83;;;6.20;86.00;;;;;;5029404;28;20388;-69
2021/12/06 00:21:47;;;;;;;30.75;23.73;;;6.20;86.00;;;;;;5028912;28;20026;-69
2021/12/06 00:24:13;;;;;;;33.38;23.88;;;6.20;86.10;;;;;;5029538;28;20030;-69
2021/12/06 00:26:38;;;;;;;32.17;23.80;;;6.10;86.00;;;;;;5026394;28;20095;-69
2021/12/06 00:29:04;;;;;;;30.65;21.58;;;6.10;86.00;;;;;;5029086;28;20030;-72
2021/12/06 00:31:33;;;;;;;35.53;24.77;;;6.10;86.00;;;;;;5026089;28;20041;-72
2021/12/06 00:34:03;;;;;;;36.88;26.08;;;6.10;86.00;;;;;;5026199;28;20060;-72
2021/12/06 00:36:32;;;;;;;32.90;24.02;;;6.20;86.10;;;;;;5043055;28;20056;-69
2021/12/06 00:38:59;;;;;;;36.83;22.90;;;6.10;86.00;;;;;;5027734;28;20025;-69
2021/12/06 00:41:26;;;;;;;34.63;24.17;;;6.20;86.20;;;;;;5028719;28;20030;-72
2021/12/06 00:43:53;;;;;;;37.90;24.50;;;6.10;86.10;;;;;;5021090;28;20026;-71
2021/12/06 00:46:19;;;;;;;37.65;25.48;;;6.10;86.20;;;;;;5009018;28;20381;-72
2021/12/06 00:48:45;;;;;;;33.35;24.35;;;6.10;86.30;;;;;;5013645;28;20013;-72
2021/12/06 00:51:13;;;;;;;35.35;24.67;;;6.10;86.30;;;;;;5037158;28;20029;-72
2021/12/06 00:53:39;;;;;;;34.72;25.08;;;6.10;86.40;;;;;;5032384;28;20032;-72
2021/12/06 00:56:05;;;;;;;36.90;24.48;;;6.10;86.40;;;;;;5029835;28;20022;-72
2021/12/06 00:58:31;;;;;;;38.22;26.83;;;6.10;86.40;;;;;;5009405;28;20030;-72
2021/12/06 01:00:57;;;;;;;37.20;25.92;;;6.10;86.50;;;;;;5033163;28;20041;-72
2021/12/06 01:03:26;;;;;;;38.45;26.48;;;6.10;86.50;;;;;;5032728;28;20045;-72
2021/12/06 01:05:53;;;;;;;36.15;24.40;;;6.10;86.50;;;;;;5048046;28;20113;-69
2021/12/06 01:08:19;;;;;;;38.58;26.25;;;6.10;86.50;;;;;;5032323;28;20040;-72
2021/12/06 01:10:45;;;;;;;40.58;26.15;;;6.10;86.50;;;;;;5030487;28;20034;-72
2021/12/06 01:13:11;;;;;;;38.33;25.65;;;6.20;86.60;;;;;;5031074;28;20064;-71
2021/12/06 01:15:39;;;;;;;42.17;27.40;;;6.10;86.60;;;;;;5031973;28;20500;-69
2021/12/06 01:18:07;;;;;;;41.45;26.40;;;6.10;86.60;;;;;;5029801;28;20450;-72
2021/12/06 01:20:41;;;;;;;43.45;27.02;;;6.10;86.70;;;;;;5032059;28;20013;-72
2021/12/06 01:23:11;;;;;;;40.05;26.27;;;6.10;86.70;;;;;;5032038;28;20064;-72
2021/12/06 01:26:08;;;;;;;38.58;26.90;;;6.10;86.80;;;;;;5031680;28;20045;-72
2021/12/06 01:31:36;;;;;;;45.00;28.23;;;6.20;86.80;;;;;;5031029;28;20400;-72
2021/12/06 01:39:20;;;;;;;46.88;28.27;;;6.10;86.80;;;;;;5031285;28;20406;-69
2021/12/06 01:41:53;;;;;;;42.15;27.75;;;6.20;86.90;;;;;;5031509;28;20108;-69
2021/12/06 01:44:21;;;;;;;46.00;27.27;;;6.20;86.90;;;;;;5030155;28;20030;-69
2021/12/06 01:46:50;;;;;;;45.55;28.42;;;6.20;86.90;;;;;;5030387;28;20033;-69
2021/12/06 01:49:17;;;;;;;47.53;29.02;;;6.20;86.90;;;;;;5031595;28;20458;-69
2021/12/06 01:51:46;;;;;;;47.75;28.88;;;6.20;86.80;;;;;;5025085;28;20026;-69
2021/12/06 01:54:14;;;;;;;49.53;28.98;;;6.20;86.80;;;;;;5022505;28;20034;-69
2021/12/06 01:56:40;;;;;;;46.53;28.15;;;6.20;86.80;;;;;;5029618;28;20036;-72
2021/12/06 01:59:06;;;;;;;49.20;30.35;;;6.20;86.80;;;;;;5031805;28;20033;-72
2021/12/06 02:01:33;;;;;;;48.10;29.80;;;6.20;86.80;;;;;;5037248;28;20393;-69
2021/12/06 02:04:00;;;;;;;52.95;29.85;;;6.20;86.80;;;;;;5032039;28;20036;-69
2021/12/06 02:06:26;;;;;;;49.53;31.10;;;6.20;86.90;;;;;;5030365;28;20034;-69
2021/12/06 02:08:52;;;;;;;52.33;30.58;;;6.20;86.80;;;;;;5023480;28;20064;-69
2021/12/06 02:11:18;;;;;;;51.83;28.23;;;6.30;86.90;;;;;;5029775;28;20112;-69
2021/12/06 02:14:02;;;;;;;52.80;29.88;;;6.30;86.90;;;;;;5021340;28;20022;-69
2021/12/06 02:16:41;;;;;;;51.05;29.70;;;6.20;86.80;;;;;;5030719;28;20033;-69
2021/12/06 02:19:07;;;;;;;54.97;31.13;;;6.30;86.90;;;;;;5029287;28;20048;-69
2021/12/06 02:21:37;;;;;;;51.08;29.80;;;6.30;86.90;;;;;;5019766;28;20033;-69
2021/12/06 02:24:07;;;;;;;47.15;29.52;;;6.30;86.90;;;;;;5029892;28;20095;-69
2021/12/06 02:26:33;;;;;;;55.25;32.65;;;6.30;86.90;;;;;;5026739;28;20083;-69
2021/12/06 02:28:59;;;;;;;53.63;31.60;;;6.30;86.80;;;;;;5029948;28;20037;-69
2021/12/06 02:31:26;;;;;;;48.22;29.67;;;6.30;86.80;;;;;;5029242;28;20028;-72
2021/12/06 02:33:52;;;;;;;51.03;29.70;;;6.30;86.80;;;;;;5029659;28;20033;-72
2021/12/06 02:36:21;;;;;;;55.13;31.05;;;6.30;86.80;;;;;;5030453;28;20033;-72
2021/12/06 02:38:47;;;;;;;55.42;31.67;;;6.30;86.80;;;;;;5031078;28;20030;-72
2021/12/06 02:41:14;;;;;;;52.85;31.25;;;6.30;86.80;;;;;;5030409;28;20578;-72
2021/12/06 02:43:42;;;;;;;51.70;30.27;;;6.30;86.80;;;;;;5014901;28;20026;-72
2021/12/06 02:46:08;;;;;;;47.10;29.98;;;6.30;86.80;;;;;;5029345;28;20042;-72
2021/12/06 02:48:34;;;;;;;51.85;30.83;;;6.30;86.80;;;;;;5031109;28;20036;-69
2021/12/06 02:51:04;;;;;;;47.22;29.73;;;6.30;86.70;;;;;;5028564;28;20026;-69
2021/12/06 02:53:31;;;;;;;51.00;29.70;;;6.30;86.70;;;;;;5030833;28;20511;-69
2021/12/06 02:56:00;;;;;;;51.25;29.60;;;6.30;86.60;;;;;;5028718;28;20053;-69
2021/12/06 03:01:06;;;;;;;54.42;30.65;;;6.30;86.60;;;;;;5029445;28;20535;-69
2021/12/06 03:03:32;;;;;;;55.10;32.00;;;6.20;86.50;;;;;;5028857;28;20068;-68
2021/12/06 03:05:58;;;;;;;49.70;29.88;;;6.20;86.50;;;;;;5039553;28;20482;-71
2021/12/06 03:08:50;;;;;;;51.15;30.65;;;6.20;86.50;;;;;;5033327;28;20049;-71
2021/12/06 03:11:21;;;;;;;50.70;28.77;;;6.20;87.10;;;;;;5029830;28;20643;-71
2021/12/06 03:13:48;;;;;;;50.72;29.35;;;6.20;86.50;;;;;;5026151;28;20014;-71
2021/12/06 03:16:15;;;;;;;51.67;29.98;;;6.20;86.50;;;;;;5027520;28;20037;-71
2021/12/06 03:18:46;;;;;;;49.42;28.90;;;6.30;86.50;;;;;;5028724;28;20029;-71
2021/12/06 03:21:12;;;;;;;51.35;29.15;;;6.30;86.50;;;;;;5028918;28;20073;-71
2021/12/06 03:23:38;;;;;;;50.50;28.15;;;6.30;86.40;;;;;;5028605;28;20057;-68
2021/12/06 03:26:05;;;;;;;56.85;30.58;;;6.30;86.40;;;;;;5028256;28;20068;-71
2021/12/06 03:28:38;;;;;;;51.92;29.75;;;6.30;86.40;;;;;;5029845;28;20030;-71
2021/12/06 03:31:06;;;;;;;51.50;29.35;;;6.30;86.40;;;;;;5029558;28;20450;-70
2021/12/06 03:33:35;;;;;;;49.13;29.10;;;6.30;86.40;;;;;;5026884;28;20032;-71
2021/12/06 03:36:02;;;;;;;48.78;29.02;;;6.20;86.30;;;;;;5029855;28;20120;-70
2021/12/06 03:38:28;;;;;;;50.22;29.05;;;6.20;86.20;;;;;;5029638;28;20028;-71
2021/12/06 03:40:54;;;;;;;49.83;29.05;;;6.20;86.20;;;;;;5029077;28;20037;-71
2021/12/06 03:43:20;;;;;;;53.03;30.70;;;6.30;86.30;;;;;;5029195;28;20034;-71
2021/12/06 03:45:45;;;;;;;54.33;30.45;;;6.20;86.30;;;;;;5029499;28;20034;-71
2021/12/06 03:48:11;;;;;;;53.70;31.75;;;6.20;86.30;;;;;;5029603;28;20045;-71
2021/12/06 03:50:37;;;;;;;55.65;31.63;;;6.20;86.40;;;;;;5023625;28;20030;-71
2021/12/06 03:53:02;;;;;;;56.67;30.75;;;6.20;86.40;;;;;;5019466;28;20112;-71
2021/12/06 03:55:28;;;;;;;57.03;31.02;;;6.10;86.40;;;;;;5028807;28;20057;-71
2021/12/06 03:57:54;;;;;;;56.58;32.30;;;6.10;86.50;;;;;;5029764;28;20029;-71
2021/12/06 04:00:19;;;;;;;55.30;31.15;;;6.10;86.50;;;;;;5028903;28;20040;-68
2021/12/06 04:02:45;;;;;;;53.67;30.77;;;6.10;86.60;;;;;;5028106;28;20036;-68
2021/12/06 04:05:12;;;;;;;49.80;28.48;;;6.20;86.60;;;;;;5029568;28;20030;-68
2021/12/06 04:07:37;;;;;;;52.38;30.67;;;6.20;86.60;;;;;;5038508;28;20061;-68
2021/12/06 04:10:08;;;;;;;53.78;28.27;;;6.20;86.50;;;;;;5047148;28;20404;-68
2021/12/06 04:12:34;;;;;;;56.13;30.67;;;6.20;86.50;;;;;;5030840;28;20108;-68
2021/12/06 04:15:00;;;;;;;49.30;28.75;;;6.20;86.50;;;;;;5027847;28;20025;-68
2021/12/06 04:17:26;;;;;;;52.70;29.92;;;6.20;86.50;;;;;;5027439;28;20037;-71
2021/12/06 04:19:52;;;;;;;50.88;28.40;;;6.20;86.40;;;;;;5028005;28;20037;-71
2021/12/06 04:22:19;;;;;;;59.13;31.90;;;6.20;86.40;;;;;;5028974;28;20374;-71
2021/12/06 04:24:46;;;;;;;63.25;32.67;;;6.20;86.40;;;;;;5020630;28;20468;-71
2021/12/06 04:27:15;;;;;;;57.10;31.40;;;6.20;86.30;;;;;;5023046;28;20060;-71
2021/12/06 04:29:46;;;;;;;54.58;31.50;;;6.20;86.30;;;;;;5029042;28;20030;-71
2021/12/06 04:32:13;;;;;;;55.60;31.27;;;6.20;86.30;;;;;;5026527;28;20017;-71
2021/12/06 04:34:40;;;;;;;56.67;30.50;;;6.20;86.40;;;;;;5028324;28;20068;-71
2021/12/06 04:37:06;;;;;;;51.13;29.58;;;6.20;86.30;;;;;;5020871;28;20568;-71
2021/12/06 04:39:33;;;;;;;54.60;31.35;;;6.20;86.30;;;;;;5023120;28;20030;-68
2021/12/06 04:41:59;;;;;;;56.78;31.90;;;6.20;86.30;;;;;;5019607;28;20038;-68
2021/12/06 04:44:25;;;;;;;56.53;32.25;;;6.20;86.30;;;;;;5013306;28;20058;-68
2021/12/06 04:46:51;;;;;;;54.97;32.10;;;6.20;86.20;;;;;;5011847;28;20061;-68
2021/12/06 04:49:17;;;;;;;54.60;30.38;;;6.20;86.30;;;;;;5007682;28;20132;-68
2021/12/06 04:51:48;;;;;;;52.90;30.92;;;6.20;86.20;;;;;;5008944;28;20034;-68
2021/12/06 04:54:16;;;;;;;52.58;28.80;;;6.20;86.20;;;;;;5018863;28;20029;-68
2021/12/06 04:56:47;;;;;;;52.28;29.50;;;6.20;86.20;;;;;;5016944;28;20075;-68
2021/12/06 04:59:41;;;;;;;54.55;29.50;;;6.10;86.20;;;;;;5020466;28;20029;-68
2021/12/06 05:02:11;;;;;;;55.33;29.63;;;6.10;86.10;;;;;;5026930;28;20065;-68
2021/12/06 05:04:43;;;;;;;58.35;31.35;;;6.10;86.10;;;;;;5011129;28;20046;-68
2021/12/06 05:07:34;;;;;;;59.83;31.25;;;6.10;86.10;;;;;;5027102;28;20033;-67
2021/12/06 05:10:00;;;;;;;61.03;32.83;;;6.10;86.10;;;;;;5027749;28;20122;-68
2021/12/06 05:12:28;;;;;;;64.25;33.75;;;6.10;86.10;;;;;;5027104;28;20026;-68
2021/12/06 05:14:54;;;;;;;60.33;33.40;;;6.10;86.10;;;;;;5028533;28;20033;-68
2021/12/06 05:17:20;;;;;;;60.50;33.58;;;6.00;86.00;;;;;;5034155;28;20033;-68
2021/12/06 05:19:46;;;;;;;60.05;32.33;;;6.00;86.00;;;;;;5028397;28;20029;-68
2021/12/06 05:22:12;;;;;;;55.97;30.13;;;6.00;86.00;;;;;;5028260;28;20034;-68
2021/12/06 05:24:38;;;;;;;57.97;30.75;;;6.00;85.90;;;;;;5028001;28;20032;-68
2021/12/06 05:27:05;;;;;;;60.35;32.75;;;6.00;85.90;;;;;;5027974;28;20121;-68
2021/12/06 05:29:33;;;;;;;61.58;32.05;;;5.90;85.80;;;;;;5027329;28;20022;-70
2021/12/06 05:32:00;;;;;;;59.70;31.35;;;5.90;85.70;;;;;;5026936;28;20082;-71
2021/12/06 05:34:33;;;;;;;58.28;30.73;;;5.90;85.70;;;;;;5017574;28;20571;-71
2021/12/06 05:37:00;;;;;;;57.10;31.63;;;5.90;85.60;;;;;;5027091;28;20043;-70
2021/12/06 05:39:30;;;;;;;59.05;32.40;;;5.90;85.40;;;;;;5028513;28;20030;-71
2021/12/06 05:42:02;;;;;;;59.25;32.58;;;5.80;85.30;;;;;;5027526;28;20032;-71
2021/12/06 05:44:28;;;;;;;58.55;29.92;;;5.80;85.30;;;;;;5028213;28;20037;-71
2021/12/06 05:46:54;;;;;;;57.85;30.30;;;5.80;85.30;;;;;;5028393;28;20503;-68
2021/12/06 05:49:21;;;;;;;59.47;30.67;;;5.80;85.30;;;;;;5028055;28;20033;-68
2021/12/06 05:51:46;;;;;;;54.22;30.95;;;5.70;85.20;;;;;;5011910;28;20482;-68
2021/12/06 05:54:12;;;;;;;57.03;30.45;;;5.80;85.30;;;;;;5023535;28;20028;-71
2021/12/06 05:56:38;;;;;;;57.05;30.85;;;5.80;85.30;;;;;;5022101;28;20033;-71
2021/12/06 05:59:04;;;;;;;63.50;31.70;;;5.80;85.30;;;;;;5019985;28;20053;-71
2021/12/06 06:01:30;;;;;;;62.80;33.45;;;5.70;85.20;;;;;;5031268;28;20126;-71
2021/12/06 06:04:01;;;;;;;60.65;32.92;;;5.70;85.30;;;;;;5031936;28;20040;-68
2021/12/06 06:06:29;;;;;;;60.30;32.80;;;5.70;85.40;;;;;;5030850;28;20037;-68
2021/12/06 06:08:55;;;;;;;70.20;34.97;;;5.70;85.50;;;;;;5030988;28;20045;-68
2021/12/06 06:11:21;;;;;;;64.60;33.83;;;5.70;85.60;;;;;;5030252;28;20084;-68
2021/12/06 06:13:46;;;;;;;62.55;32.05;;;5.70;85.70;;;;;;5031429;28;20084;-70
2021/12/06 06:16:17;;;;;;;56.55;32.88;;;5.70;85.90;;;;;;5031877;28;20028;-70
2021/12/06 06:18:43;;;;;;;62.90;32.38;;;5.70;86.00;;;;;;5031420;28;20087;-71
2021/12/06 06:21:09;;;;;;;62.22;32.75;;;5.80;86.20;;;;;;5032071;28;20041;-71
2021/12/06 06:23:34;;;;;;;61.58;33.65;;;5.80;86.30;;;;;;5014321;28;20409;-71
2021/12/06 06:26:00;;;;;;;68.15;33.67;;;5.80;86.30;;;;;;5029475;28;20400;-70
2021/12/06 06:28:26;;;;;;;66.22;32.33;;;5.80;86.40;;;;;;5030605;28;20079;-71
2021/12/06 06:30:52;;;;;;;59.53;31.40;;;5.80;86.50;;;;;;5031466;28;20516;-70
2021/12/06 06:33:18;;;;;;;60.22;32.40;;;5.80;86.60;;;;;;5029044;28;20116;-70
2021/12/06 06:35:43;;;;;;;62.72;32.17;;;5.90;86.70;;;;;;5031036;28;20061;-71
2021/12/06 06:38:09;;;;;;;59.63;31.77;;;5.90;86.70;;;;;;5031274;28;20029;-71
2021/12/06 06:40:35;;;;;;;58.05;31.85;;;5.90;86.70;;;;;;5025223;28;20100;-71
2021/12/06 06:43:01;;;;;;;55.17;30.65;;;5.90;86.70;;;;;;5018881;28;20036;-70
2021/12/06 06:45:27;;;;;;;56.22;31.55;;;5.80;86.70;;;;;;5030648;28;20528;-71
2021/12/06 06:47:53;;;;;;;56.58;31.38;;;5.90;86.70;;;;;;5030898;28;20075;-68
2021/12/06 06:50:19;;;;;;;60.80;32.58;;;5.80;86.60;;;;;;5030691;28;20109;-71
2021/12/06 06:52:46;;;;;;;62.75;33.63;;;5.80;86.60;;;;;;5030230;28;20025;-68
2021/12/06 06:55:13;;;;;;;58.38;32.00;;;5.80;86.60;;;;;;5030446;28;20053;-68
2021/12/06 06:57:40;;;;;;;61.05;32.63;;;5.80;86.70;;;;;;5029708;28;20057;-68
2021/12/06 07:00:08;;;;;;;56.05;31.83;;;5.80;86.60;;;;;;5029559;28;20455;-68
2021/12/06 07:02:34;;;;;;;57.90;30.85;;;5.80;86.70;;;;;;5030092;28;20029;-70
2021/12/06 07:05:00;;;;;;;59.78;33.30;;;5.80;86.60;;;;;;5030409;28;20037;-70
2021/12/06 07:07:25;;;;;;;57.50;31.58;;;5.80;86.60;;;;;;5013084;28;20041;-70
2021/12/06 07:09:51;;;;;;;56.17;29.58;;;5.70;86.60;;;;;;5029653;28;20050;-71
2021/12/06 07:12:18;;;;;;;56.50;30.77;;;5.70;86.60;;;;;;5030047;28;20029;-67
2021/12/06 07:14:46;;;;;;;52.47;30.02;;;5.80;86.70;;;;;;5023137;28;20626;-67
2021/12/06 07:17:13;;;;;;;57.35;31.00;;;5.70;86.60;;;;;;5028040;28;20029;-68
2021/12/06 07:19:38;;;;;;;53.67;31.25;;;5.70;86.60;;;;;;5028733;28;20117;-68
2021/12/06 07:22:05;;;;;;;51.75;30.50;;;5.70;86.60;;;;;;5030118;28;20124;-67
2021/12/06 07:24:30;;;;;;;53.13;29.45;;;5.70;86.60;;;;;;5029857;28;20140;-68
2021/12/06 07:26:57;;;;;;;51.45;29.80;;;5.70;86.70;;;;;;5037840;28;20037;-68
2021/12/06 07:29:23;;;;;;;56.22;30.50;;;5.60;86.50;;;;;;5033343;28;20025;-68
2021/12/06 07:31:49;;;;;;;53.15;28.83;;;5.60;86.60;;;;;;5024574;28;20084;-67
2021/12/06 07:34:15;;;;;;;47.25;27.90;;;5.70;86.70;;;;;;5028853;28;20506;-68
2021/12/06 07:36:41;;;;;;;51.28;29.92;;;5.60;86.70;;;;;;5029782;28;20083;-71
2021/12/06 07:39:07;;;;;;;58.30;30.70;;;5.60;86.70;;;;;;5030193;28;20037;-70
2021/12/06 07:41:33;;;;;;;51.33;29.30;;;5.60;86.70;;;;;;5028825;28;20048;-71
2021/12/06 07:43:59;;;;;;;53.33;30.27;;;5.60;86.70;;;;;;5027360;28;20060;-71
2021/12/06 07:46:25;;;;;;;48.22;28.08;;;5.60;86.70;;;;;;5018627;28;20103;-71
2021/12/06 07:48:54;;;;;;;51.63;30.33;;;5.60;86.70;;;;;;5026339;28;20503;-71
2021/12/06 07:51:22;;;;;;;51.67;27.98;;;5.60;86.70;;;;;;5029405;28;20431;-70
2021/12/06 07:53:48;;;;;;;54.47;29.70;;;5.60;86.70;;;;;;5028593;28;20144;-71
2021/12/06 07:56:14;;;;;;;52.28;28.80;;;5.60;86.70;;;;;;5029059;28;20037;-71
2021/12/06 07:58:39;;;;;;;50.53;28.60;;;5.60;86.70;;;;;;5029774;28;20112;-71
2021/12/06 08:01:05;;;;;;;50.00;28.90;;;5.60;86.80;;;;;;5028578;28;20037;-71
2021/12/06 08:03:31;;;;;;;52.85;28.98;;;5.60;86.80;;;;;;5028661;28;20030;-71
2021/12/06 08:05:58;;;;;;;48.25;28.52;;;5.60;86.80;;;;;;5022984;28;20041;-71
2021/12/06 08:08:28;;;;;;;51.05;29.27;;;5.60;86.80;;;;;;5029746;28;20439;-68
2021/12/06 08:10:57;;;;;;;47.83;28.50;;;5.60;86.80;;;;;;5027109;28;20033;-68
2021/12/06 08:13:30;;;;;;;46.92;27.77;;;5.60;87.40;;;;;;5026212;28;20504;-68
2021/12/06 08:15:58;;;;;;;40.83;25.33;;;5.50;86.70;;;;;;5028093;28;20109;-68
2021/12/06 08:18:24;;;;;;;43.85;27.05;;;5.50;86.70;;;;;;5028571;28;20365;-67
2021/12/06 08:20:50;;;;;;;42.42;26.60;;;5.50;86.70;;;;;;5027316;28;20041;-67
2021/12/06 08:23:17;;;;;;;40.40;25.75;;;5.50;86.70;;;;;;5022671;28;20480;-67
2021/12/06 08:25:46;;;;;;;42.75;26.73;;;5.50;86.80;;;;;;5027826;28;20287;-67
2021/12/06 08:28:12;;;;;;;38.53;24.20;;;5.50;86.60;;;;;;5029313;28;20112;-66
2021/12/06 08:30:38;;;;;;;41.20;23.75;;;5.50;86.60;;;;;;5028806;28;20080;-67
2021/12/06 08:33:05;;;;;;;40.83;25.92;;;5.50;86.60;;;;;;5031324;28;20041;-67
2021/12/06 08:35:31;;;;;;;41.10;25.25;;;5.50;86.40;;;;;;5036967;28;20071;-67
2021/12/06 08:37:59;;;;;;;47.05;27.08;;;5.50;86.40;;;;;;5028805;28;20049;-67
2021/12/06 08:40:27;;;;;;;40.25;25.17;;;5.40;86.50;;;;;;5026211;28;20080;-67
2021/12/06 08:42:53;;;;;;;43.83;26.65;;;5.40;86.50;;;;;;5028641;28;20033;-67
2021/12/06 08:45:19;;;;;;;40.22;26.17;;;5.30;86.50;;;;;;5027373;28;20484;-67
2021/12/06 08:47:45;;;;;;;43.72;25.77;;;5.30;87.20;;;;;;5028570;28;20033;-67
2021/12/06 08:50:18;;;;;;;45.80;26.95;;;5.30;86.70;;;;;;5028891;28;20032;-67
2021/12/06 08:52:44;;;;;;;;;;;5.30;86.70;;;;;;5028981;28;20048;-67
2021/12/06 08:55:11;;;;;;;42.35;26.38;;;5.30;86.70;;;;;;5028403;28;19909;-67
2021/12/06 08:57:37;;;;;;;44.13;26.38;;;5.20;86.60;;;;;;5026694;28;20084;-66
2021/12/06 09:00:10;;;;;;;39.90;24.50;;;5.30;86.80;;;;;;5028764;28;20022;-66
2021/12/06 09:02:38;;;;;;;39.05;25.65;;;5.30;86.70;;;;;;5026967;28;20087;-67
2021/12/06 09:05:04;;;;;;;41.45;25.60;;;5.40;86.80;;;;;;5027987;28;20064;-67
2021/12/06 09:07:30;;;;;;;41.22;24.98;;;5.30;86.70;;;;;;5028693;28;20045;-67
2021/12/06 09:09:56;;;;;;;38.13;25.67;;;5.30;86.70;;;;;;5026781;28;20420;-71
2021/12/06 09:12:25;;;;;;;42.60;26.27;;;5.30;86.70;;;;;;5017698;28;20057;-70
2021/12/06 09:14:52;;;;;;;40.33;25.30;;;5.30;86.60;;;;;;5026720;28;20021;-70
2021/12/06 09:17:18;;;;;;;38.22;24.85;;;5.30;86.70;;;;;;5028594;28;20398;-71
2021/12/06 09:19:44;;;;;;;39.88;26.48;;;5.30;86.70;;;;;;5028398;28;20030;-71
2021/12/06 09:22:11;;;;;;;40.50;25.67;;;5.40;86.80;;;;;;5029031;28;20025;-71
2021/12/06 09:24:36;;;;;;;41.20;27.67;;;5.40;86.80;;;;;;5031920;28;20102;-70
2021/12/06 09:27:03;;;;;;;41.35;27.65;;;5.40;86.70;;;;;;5031349;28;20033;-67
2021/12/06 09:29:32;;;;;;;43.60;27.33;;;5.40;86.60;;;;;;5032221;28;20025;-67
2021/12/06 09:31:59;;;;;;;44.20;28.10;;;5.40;86.60;;;;;;5022022;28;20021;-68
2021/12/06 09:34:27;;;;;;;46.08;27.85;;;5.40;86.60;;;;;;5027369;28;20025;-68
2021/12/06 09:36:55;;;;;;;39.03;25.45;;;5.40;86.60;;;;;;5031826;28;20923;-67
2021/12/06 09:39:21;;;;;;;38.50;25.90;;;5.40;86.50;;;;;;5025587;28;20021;-68
2021/12/06 09:41:47;;;;;;;51.25;27.52;;;5.40;86.40;;;;;;5022678;28;20029;-67
2021/12/06 09:44:14;;;;;;;40.92;24.58;;;5.30;86.20;;;;;;5030458;28;20037;-67
2021/12/06 09:46:42;;;;;;;48.67;28.42;;;5.30;86.30;;;;;;5029519;28;20384;-68
2021/12/06 09:49:15;;;;;;;46.20;28.63;;;5.20;86.30;;;;;;5027098;28;20042;-67
2021/12/06 09:51:50;;;;;;;46.10;27.42;;;5.20;86.30;;;;;;5034406;28;20173;-67
2021/12/06 09:54:24;;;;;;;52.70;29.20;;;5.30;86.40;;;;;;5028320;28;20412;-67
2021/12/06 09:56:53;;;;;;;43.22;27.42;;;5.30;86.40;;;;;;5027097;28;20037;-67
2021/12/06 09:59:21;;;;;;;54.17;29.70;;;5.30;86.40;;;;;;5029721;28;20029;-67
2021/12/06 10:01:50;;;;;;;45.63;28.23;;;5.30;86.30;;;;;;5029247;28;20497;-67
2021/12/06 10:04:19;;;;;;;57.00;30.83;;;5.30;86.20;;;;;;5026866;28;20021;-68
2021/12/06 10:06:46;;;;;;;45.78;27.77;;;5.30;86.20;;;;;;5027401;28;20029;-68
2021/12/06 10:09:14;;;;;;;48.83;28.85;;;5.40;86.20;;;;;;5033572;28;20045;-67
2021/12/06 10:11:40;;;;;;;49.97;27.92;;;5.40;86.20;;;;;;5041602;28;20405;-68
2021/12/06 10:14:06;;;;;;;51.25;29.58;;;5.40;86.10;;;;;;5025857;28;20041;-68
2021/12/06 10:16:33;;;;;;;64.63;29.85;;;5.40;86.10;;;;;;5037175;28;20037;-68
2021/12/06 10:18:59;;;;;;;56.08;28.52;;;5.40;86.00;;;;;;5029069;28;20053;-68
2021/12/06 10:21:29;;;;;;;46.67;28.27;;;5.40;85.90;;;;;;5028730;28;20072;-67
2021/12/06 10:23:56;;;;;;;46.15;27.42;;;5.40;86.00;;;;;;5028269;28;20172;-68
2021/12/06 10:26:26;;;;;;;43.15;27.33;;;5.30;86.10;;;;;;5028555;28;20047;-67
2021/12/06 10:29:00;;;;;;;48.70;29.20;;;5.40;86.30;;;;;;5028084;28;20064;-67
2021/12/06 10:31:29;;;;;;;52.97;28.95;;;5.40;86.30;;;;;;5028280;28;20116;-67
2021/12/06 10:33:55;;;;;;;43.45;26.08;;;5.40;86.30;;;;;;5019820;28;20026;-67
2021/12/06 10:36:24;;;;;;;48.35;27.63;;;5.40;86.30;;;;;;5028610;28;20388;-67
2021/12/06 10:38:53;;;;;;;47.28;29.25;;;5.40;86.50;;;;;;5030566;28;20120;-67
2021/12/06 10:41:25;;;;;;;47.97;28.30;;;5.40;86.50;;;;;;5029458;28;20040;-66
2021/12/06 10:44:00;;;;;;;47.20;25.73;;;5.40;86.60;;;;;;5037663;28;20028;-66
2021/12/06 10:46:27;;;;;;;42.20;26.80;;;5.50;86.70;;;;;;5026922;28;20029;-67
2021/12/06 10:48:57;;;;;;;43.63;25.33;;;5.50;86.60;;;;;;5028239;28;20022;-67
2021/12/06 10:51:23;;;;;;;47.83;26.35;;;5.50;86.70;;;;;;5023904;28;20024;-71
2021/12/06 10:54:02;;;;;;;43.85;25.42;;;5.40;86.70;;;;;;5035306;28;20070;-67
2021/12/06 10:56:39;;;;;;;45.15;27.55;;;5.50;86.70;;;;;;5025426;28;20021;-71
2021/12/06 10:59:21;;;;;;;43.05;25.95;;;5.40;86.70;;;;;;5029644;28;20370;-71
2021/12/06 11:01:48;;;;;;;45.08;27.58;;;5.40;86.80;;;;;;5025273;28;20029;-71
2021/12/06 11:04:18;;;;;;;43.97;27.02;;;5.40;86.90;;;;;;5023054;28;20064;-71
2021/12/06 11:06:47;;;;;;;43.10;27.15;;;5.40;87.00;;;;;;5032430;28;20119;-71
2021/12/06 11:09:16;;;;;;;46.92;28.45;;;5.50;87.10;;;;;;5021904;28;20136;-67
2021/12/06 11:11:45;;;;;;;57.08;30.48;;;5.50;87.10;;;;;;5023335;28;20392;-68
2021/12/06 11:14:15;;;;;;;46.28;28.70;;;5.50;87.00;;;;;;5023525;28;20021;-67
2021/12/06 11:16:46;;;;;;;45.30;28.85;;;5.60;87.00;;;;;;5022787;28;20033;-67
2021/12/06 11:19:17;;;;;;;49.17;29.20;;;5.60;87.70;;;;;;5023174;28;20034;-67
2021/12/06 11:21:44;;;;;;;43.05;25.85;;;5.60;87.10;;;;;;5014679;28;20108;-67
2021/12/06 11:24:25;;;;;;;46.03;27.65;;;5.60;87.20;;;;;;5021937;28;20036;-67
2021/12/06 11:27:00;;;;;;;41.30;26.48;;;5.60;87.20;;;;;;5018904;28;20029;-71
2021/12/06 11:29:38;;;;;;;43.78;27.98;;;5.60;87.10;;;;;;5017101;28;20039;-71
2021/12/06 11:32:24;;;;;;;43.03;26.50;;;5.60;87.00;;;;;;5025373;28;20499;-68
2021/12/06 11:34:54;;;;;;;43.95;27.92;;;5.60;87.20;;;;;;5015234;28;20060;-67
2021/12/06 11:37:27;;;;;;;42.88;28.67;;;5.60;87.30;;;;;;5016632;28;20037;-67
2021/12/06 11:40:10;;;;;;;41.35;25.58;;;5.60;87.30;;;;;;5018483;28;20065;-71
2021/12/06 11:42:59;;;;;;;37.70;24.67;;;5.70;87.30;;;;;;5018119;28;20052;-68
2021/12/06 11:45:33;;;;;;;38.22;25.80;;;5.70;87.00;;;;;;5027828;28;20033;-67
2021/12/06 11:48:04;;;;;;;40.88;26.13;;;5.60;87.00;;;;;;5024755;28;20431;-67
2021/12/06 11:50:31;;;;;;;37.88;26.55;;;5.60;87.10;;;;;;5023469;28;20468;-68
2021/12/06 11:53:03;;;;;;;39.42;26.95;;;5.60;87.10;;;;;;5010035;28;20026;-68
2021/12/06 11:55:29;;;;;;;42.85;26.63;;;5.60;87.10;;;;;;5014381;28;20030;-68
2021/12/06 11:57:55;;;;;;;40.85;27.40;;;5.60;87.00;;;;;;5027584;28;20060;-68
2021/12/06 12:00:23;;;;;;;40.33;26.13;;;5.60;86.80;;;;;;5029701;28;20029;-67
2021/12/06 12:02:51;;;;;;;43.92;28.17;;;5.60;86.90;;;;;;5028690;28;20041;-67
2021/12/06 12:05:26;;;;;;;40.33;26.15;;;5.60;87.00;;;;;;5029615;28;20025;-67
2021/12/06 12:08:17;;;;;;;47.47;29.17;;;5.60;86.90;;;;;;5029607;28;20036;-67
2021/12/06 12:10:50;;;;;;;45.20;28.42;;;5.60;86.80;;;;;;5025148;28;20056;-68
2021/12/06 12:13:36;;;;;;;40.65;24.65;;;5.60;86.60;;;;;;5028939;28;20443;-67
2021/12/06 12:16:08;;;;;;;42.53;25.77;;;5.60;86.80;;;;;;5028524;28;20045;-67
2021/12/06 12:18:41;;;;;;;43.67;26.13;;;5.60;86.80;;;;;;5028518;28;20468;-67
2021/12/06 12:21:08;;;;;;;37.35;23.35;;;5.50;86.80;;;;;;5028747;28;20052;-72
2021/12/06 12:23:35;;;;;;;40.40;24.58;;;5.50;86.90;;;;;;5028614;28;20032;-71
2021/12/06 12:26:07;;;;;;;43.80;24.63;;;5.50;87.10;;;;;;5028228;28;20037;-71
2021/12/06 12:28:37;;;;;;;41.78;24.92;;;5.50;86.80;;;;;;5028494;28;20025;-70
2021/12/06 12:31:07;;;;;;;42.85;25.02;;;5.50;86.90;;;;;;5028153;28;20100;-71
2021/12/06 12:33:34;;;;;;;42.05;24.52;;;5.50;86.90;;;;;;5028103;28;20045;-71
2021/12/06 12:36:14;;;;;;;43.17;25.13;;;5.50;86.80;;;;;;5028373;28;20441;-70
2021/12/06 12:38:43;;;;;;;37.58;22.23;;;5.40;86.70;;;;;;5028344;28;20491;-68
2021/12/06 12:41:13;;;;;;;39.78;24.42;;;5.40;86.90;;;;;;5026461;28;20025;-67
2021/12/06 12:43:43;;;;;;;38.75;23.88;;;5.50;87.00;;;;;;5028362;28;20129;-67
2021/12/06 12:46:14;;;;;;;47.40;24.88;;;5.40;86.80;;;;;;5008808;28;20607;-68
2021/12/06 12:48:55;;;;;;;45.20;25.58;;;5.40;86.80;;;;;;5018436;28;20465;-70
2021/12/06 12:51:35;;;;;;;40.53;22.05;;;5.40;87.00;;;;;;5028642;28;20045;-67
2021/12/06 12:54:22;;;;;;;44.83;24.02;;;5.30;87.10;;;;;;5029034;28;20109;-68
2021/12/06 12:56:57;;;;;;;40.88;23.25;;;5.30;87.20;;;;;;5028142;28;20028;-68